sensor_id;sensor_type;location;lat;lon;timestamp;temperature;humidity
698;DHT22;331;48.414;9.938;2023-05-23T00:00:17;18.10;99.90
698;DHT22;331;48.414;9.938;2023-05-23T00:02:44;18.10;99.90
698;DHT22;331;48.414;9.938;2023-05-23T00:05:12;18.10;99.90
698;DHT22;331;48.414;9.938;2023-05-23T00:07:42;18.10;99.90
698;DHT22;331;48.414;9.938;2023-05-23T00:10:12;18.00;99.90
698;DHT22;331;48.414;9.938;2023-05-23T00:12:39;18.00;99.90
698;DHT22;331;48.414;9.938;2023-05-23T00:15:07;18.00;99.90
698;DHT22;331;48.414;9.938;2023-05-23T00:17:37;18.00;99.90
698;DHT22;331;48.414;9.938;2023-05-23T00:20:07;18.00;99.90
698;DHT22;331;48.414;9.938;2023-05-23T00:22:36;17.90;99.90
698;DHT22;331;48.414;9.938;2023-05-23T00:25:07;17.90;99.90
698;DHT22;331;48.414;9.938;2023-05-23T00:27:34;17.90;99.90
698;DHT22;331;48.414;9.938;2023-05-23T00:30:04;17.90;99.90
698;DHT22;331;48.414;9.938;2023-05-23T00:32:31;17.90;99.90
698;DHT22;331;48.414;9.938;2023-05-23T00:34:57;17.90;99.90
698;DHT22;331;48.414;9.938;2023-05-23T00:37:24;17.90;99.90
698;DHT22;331;48.414;9.938;2023-05-23T00:39:54;17.90;99.90
698;DHT22;331;48.414;9.938;2023-05-23T00:42:20;17.80;99.90
698;DHT22;331;48.414;9.938;2023-05-23T00:44:48;17.80;99.90
698;DHT22;331;48.414;9.938;2023-05-23T00:47:15;17.80;99.90
698;DHT22;331;48.414;9.938;2023-05-23T00:49:41;17.80;99.90
698;DHT22;331;48.414;9.938;2023-05-23T00:52:09;17.80;99.90
698;DHT22;331;48.414;9.938;2023-05-23T00:54:36;17.70;99.90
698;DHT22;331;48.414;9.938;2023-05-23T00:57:06;17.80;99.90
698;DHT22;331;48.414;9.938;2023-05-23T00:59:33;17.70;99.90
698;DHT22;331;48.414;9.938;2023-05-23T01:02:02;17.70;99.90
698;DHT22;331;48.414;9.938;2023-05-23T01:04:28;17.70;99.90
698;DHT22;331;48.414;9.938;2023-05-23T01:06:58;17.70;99.90
698;DHT22;331;48.414;9.938;2023-05-23T01:09:26;17.70;99.90
698;DHT22;331;48.414;9.938;2023-05-23T01:11:56;17.60;99.90
698;DHT22;331;48.414;9.938;2023-05-23T01:14:28;17.60;99.90
698;DHT22;331;48.414;9.938;2023-05-23T01:17:00;17.60;99.90
698;DHT22;331;48.414;9.938;2023-05-23T01:19:43;17.60;99.90
698;DHT22;331;48.414;9.938;2023-05-23T01:22:18;17.60;99.90
698;DHT22;331;48.414;9.938;2023-05-23T01:24:49;17.60;99.90
698;DHT22;331;48.414;9.938;2023-05-23T01:27:22;17.50;99.90
698;DHT22;331;48.414;9.938;2023-05-23T01:29:52;17.50;99.90
698;DHT22;331;48.414;9.938;2023-05-23T01:32:20;17.50;99.90
698;DHT22;331;48.414;9.938;2023-05-23T01:34:48;17.50;99.90
698;DHT22;331;48.414;9.938;2023-05-23T01:37:18;17.50;99.90
698;DHT22;331;48.414;9.938;2023-05-23T01:39:45;17.50;99.90
698;DHT22;331;48.414;9.938;2023-05-23T01:42:13;17.40;99.90
698;DHT22;331;48.414;9.938;2023-05-23T01:44:40;17.50;99.90
698;DHT22;331;48.414;9.938;2023-05-23T01:47:09;17.40;99.90
698;DHT22;331;48.414;9.938;2023-05-23T01:49:38;17.40;99.90
698;DHT22;331;48.414;9.938;2023-05-23T01:52:06;17.40;99.90
698;DHT22;331;48.414;9.938;2023-05-23T01:54:36;17.40;99.90
698;DHT22;331;48.414;9.938;2023-05-23T01:57:03;17.40;99.90
698;DHT22;331;48.414;9.938;2023-05-23T01:59:31;17.40;99.90
698;DHT22;331;48.414;9.938;2023-05-23T02:01:58;17.30;99.90
698;DHT22;331;48.414;9.938;2023-05-23T02:04:28;17.40;99.90
698;DHT22;331;48.414;9.938;2023-05-23T02:06:57;17.30;99.90
698;DHT22;331;48.414;9.938;2023-05-23T02:09:24;17.30;99.90
698;DHT22;331;48.414;9.938;2023-05-23T02:11:51;17.30;99.90
698;DHT22;331;48.414;9.938;2023-05-23T02:14:18;17.30;99.90
698;DHT22;331;48.414;9.938;2023-05-23T02:16:45;17.30;99.90
698;DHT22;331;48.414;9.938;2023-05-23T02:19:11;17.30;99.90
698;DHT22;331;48.414;9.938;2023-05-23T02:21:40;17.30;99.90
698;DHT22;331;48.414;9.938;2023-05-23T02:24:06;17.20;99.90
698;DHT22;331;48.414;9.938;2023-05-23T02:26:33;17.20;99.90
698;DHT22;331;48.414;9.938;2023-05-23T02:29:00;17.20;99.90
698;DHT22;331;48.414;9.938;2023-05-23T02:31:28;17.20;99.90
698;DHT22;331;48.414;9.938;2023-05-23T02:33:55;17.20;99.90
698;DHT22;331;48.414;9.938;2023-05-23T02:36:21;17.20;99.90
698;DHT22;331;48.414;9.938;2023-05-23T02:38:50;17.20;99.90
698;DHT22;331;48.414;9.938;2023-05-23T02:41:17;17.20;99.90
698;DHT22;331;48.414;9.938;2023-05-23T02:43:44;17.20;99.90
698;DHT22;331;48.414;9.938;2023-05-23T02:46:11;17.20;99.90
698;DHT22;331;48.414;9.938;2023-05-23T02:48:39;17.10;99.90
698;DHT22;331;48.414;9.938;2023-05-23T02:51:05;17.10;99.90
698;DHT22;331;48.414;9.938;2023-05-23T02:53:32;17.10;99.90
698;DHT22;331;48.414;9.938;2023-05-23T02:56:01;17.10;99.90
698;DHT22;331;48.414;9.938;2023-05-23T02:58:28;17.10;99.90
698;DHT22;331;48.414;9.938;2023-05-23T03:00:56;17.10;99.90
698;DHT22;331;48.414;9.938;2023-05-23T03:03:23;17.10;99.90
698;DHT22;331;48.414;9.938;2023-05-23T03:05:50;17.10;99.90
698;DHT22;331;48.414;9.938;2023-05-23T03:08:21;17.10;99.90
698;DHT22;331;48.414;9.938;2023-05-23T03:10:49;17.10;99.90
698;DHT22;331;48.414;9.938;2023-05-23T03:13:17;17.10;99.90
698;DHT22;331;48.414;9.938;2023-05-23T03:15:45;17.10;99.90
698;DHT22;331;48.414;9.938;2023-05-23T03:18:11;17.10;99.90
698;DHT22;331;48.414;9.938;2023-05-23T03:20:38;16.50;99.90
698;DHT22;331;48.414;9.938;2023-05-23T03:23:05;17.00;99.90
698;DHT22;331;48.414;9.938;2023-05-23T03:25:32;17.00;99.90
698;DHT22;331;48.414;9.938;2023-05-23T03:27:59;17.00;99.90
698;DHT22;331;48.414;9.938;2023-05-23T03:30:29;17.00;99.90
698;DHT22;331;48.414;9.938;2023-05-23T03:32:56;17.00;99.90
698;DHT22;331;48.414;9.938;2023-05-23T03:35:23;17.00;99.90
698;DHT22;331;48.414;9.938;2023-05-23T03:37:49;16.90;99.90
698;DHT22;331;48.414;9.938;2023-05-23T03:40:16;16.90;99.90
698;DHT22;331;48.414;9.938;2023-05-23T03:42:46;16.90;99.90
698;DHT22;331;48.414;9.938;2023-05-23T03:45:13;16.90;99.90
698;DHT22;331;48.414;9.938;2023-05-23T03:47:42;16.90;99.90
698;DHT22;331;48.414;9.938;2023-05-23T03:50:09;16.90;99.90
698;DHT22;331;48.414;9.938;2023-05-23T03:52:36;16.90;99.90
698;DHT22;331;48.414;9.938;2023-05-23T03:55:03;16.90;99.90
698;DHT22;331;48.414;9.938;2023-05-23T03:57:31;16.90;99.90
698;DHT22;331;48.414;9.938;2023-05-23T03:59:58;16.90;99.90
698;DHT22;331;48.414;9.938;2023-05-23T04:02:25;16.80;99.90
698;DHT22;331;48.414;9.938;2023-05-23T04:04:53;16.80;99.90
698;DHT22;331;48.414;9.938;2023-05-23T04:09:51;16.80;99.90
698;DHT22;331;48.414;9.938;2023-05-23T04:12:18;16.80;99.90
698;DHT22;331;48.414;9.938;2023-05-23T04:14:46;16.80;99.90
698;DHT22;331;48.414;9.938;2023-05-23T04:17:15;16.80;99.90
698;DHT22;331;48.414;9.938;2023-05-23T04:19:42;16.70;99.90
698;DHT22;331;48.414;9.938;2023-05-23T04:22:10;16.70;99.90
698;DHT22;331;48.414;9.938;2023-05-23T04:24:37;16.70;99.90
698;DHT22;331;48.414;9.938;2023-05-23T04:27:04;16.70;99.90
698;DHT22;331;48.414;9.938;2023-05-23T04:29:32;16.70;99.90
698;DHT22;331;48.414;9.938;2023-05-23T04:32:00;16.70;99.90
698;DHT22;331;48.414;9.938;2023-05-23T04:34:27;16.70;99.90
698;DHT22;331;48.414;9.938;2023-05-23T04:36:56;16.70;99.90
698;DHT22;331;48.414;9.938;2023-05-23T04:39:24;16.70;99.90
698;DHT22;331;48.414;9.938;2023-05-23T04:42:14;16.60;99.90
698;DHT22;331;48.414;9.938;2023-05-23T04:44:55;16.60;99.90
698;DHT22;331;48.414;9.938;2023-05-23T04:47:41;16.70;99.90
698;DHT22;331;48.414;9.938;2023-05-23T04:50:15;16.60;99.90
698;DHT22;331;48.414;9.938;2023-05-23T04:52:44;16.60;99.90
698;DHT22;331;48.414;9.938;2023-05-23T04:55:13;16.60;99.90
698;DHT22;331;48.414;9.938;2023-05-23T04:57:40;16.60;99.90
698;DHT22;331;48.414;9.938;2023-05-23T05:00:07;16.60;99.90
698;DHT22;331;48.414;9.938;2023-05-23T05:02:35;16.60;99.90
698;DHT22;331;48.414;9.938;2023-05-23T05:05:02;16.60;99.90
698;DHT22;331;48.414;9.938;2023-05-23T05:07:29;16.60;99.90
698;DHT22;331;48.414;9.938;2023-05-23T05:09:56;16.60;99.90
698;DHT22;331;48.414;9.938;2023-05-23T05:12:25;16.60;99.90
698;DHT22;331;48.414;9.938;2023-05-23T05:14:54;16.60;99.90
698;DHT22;331;48.414;9.938;2023-05-23T05:17:24;16.60;99.90
698;DHT22;331;48.414;9.938;2023-05-23T05:20:03;16.50;99.90
698;DHT22;331;48.414;9.938;2023-05-23T05:22:34;16.50;99.90
698;DHT22;331;48.414;9.938;2023-05-23T05:25:01;16.50;99.90
698;DHT22;331;48.414;9.938;2023-05-23T05:27:32;16.60;99.90
698;DHT22;331;48.414;9.938;2023-05-23T05:29:59;16.60;99.90
698;DHT22;331;48.414;9.938;2023-05-23T05:32:32;16.60;99.90
698;DHT22;331;48.414;9.938;2023-05-23T05:35:00;16.60;99.90
698;DHT22;331;48.414;9.938;2023-05-23T05:37:27;16.60;99.90
698;DHT22;331;48.414;9.938;2023-05-23T05:39:54;16.60;99.90
698;DHT22;331;48.414;9.938;2023-05-23T05:42:21;16.60;99.90
698;DHT22;331;48.414;9.938;2023-05-23T05:44:50;16.60;99.90
698;DHT22;331;48.414;9.938;2023-05-23T05:47:16;16.60;99.90
698;DHT22;331;48.414;9.938;2023-05-23T05:49:43;16.60;99.90
698;DHT22;331;48.414;9.938;2023-05-23T05:52:10;16.60;99.90
698;DHT22;331;48.414;9.938;2023-05-23T05:54:38;16.60;99.90
698;DHT22;331;48.414;9.938;2023-05-23T05:57:05;16.60;99.90
698;DHT22;331;48.414;9.938;2023-05-23T05:59:32;16.60;99.90
698;DHT22;331;48.414;9.938;2023-05-23T06:02:00;16.60;99.90
698;DHT22;331;48.414;9.938;2023-05-23T06:04:27;16.60;99.90
698;DHT22;331;48.414;9.938;2023-05-23T06:06:56;16.60;99.90
698;DHT22;331;48.414;9.938;2023-05-23T06:09:23;16.60;99.90
698;DHT22;331;48.414;9.938;2023-05-23T06:11:49;16.60;99.90
698;DHT22;331;48.414;9.938;2023-05-23T06:14:17;16.60;99.90
698;DHT22;331;48.414;9.938;2023-05-23T06:16:45;16.60;99.90
698;DHT22;331;48.414;9.938;2023-05-23T06:19:14;16.60;99.90
698;DHT22;331;48.414;9.938;2023-05-23T06:21:41;16.60;99.90
698;DHT22;331;48.414;9.938;2023-05-23T06:24:09;16.60;99.90
698;DHT22;331;48.414;9.938;2023-05-23T06:26:36;16.60;99.90
698;DHT22;331;48.414;9.938;2023-05-23T06:29:03;16.60;99.90
698;DHT22;331;48.414;9.938;2023-05-23T06:31:30;16.60;99.90
698;DHT22;331;48.414;9.938;2023-05-23T06:33:57;16.60;99.90
698;DHT22;331;48.414;9.938;2023-05-23T06:36:25;16.60;99.90
698;DHT22;331;48.414;9.938;2023-05-23T06:38:53;16.60;99.90
698;DHT22;331;48.414;9.938;2023-05-23T06:41:21;16.60;99.90
698;DHT22;331;48.414;9.938;2023-05-23T06:43:50;16.60;99.90
698;DHT22;331;48.414;9.938;2023-05-23T06:46:22;16.60;99.90
698;DHT22;331;48.414;9.938;2023-05-23T06:48:49;16.60;99.90
698;DHT22;331;48.414;9.938;2023-05-23T06:51:17;16.60;99.90
698;DHT22;331;48.414;9.938;2023-05-23T06:53:45;16.60;99.90
698;DHT22;331;48.414;9.938;2023-05-23T06:56:12;16.60;99.90
698;DHT22;331;48.414;9.938;2023-05-23T06:58:49;16.60;99.90
698;DHT22;331;48.414;9.938;2023-05-23T07:01:16;16.60;99.90
698;DHT22;331;48.414;9.938;2023-05-23T07:03:46;16.60;99.90
698;DHT22;331;48.414;9.938;2023-05-23T07:06:13;16.60;99.90
698;DHT22;331;48.414;9.938;2023-05-23T07:08:40;16.60;99.90
698;DHT22;331;48.414;9.938;2023-05-23T07:11:10;16.60;99.90
698;DHT22;331;48.414;9.938;2023-05-23T07:13:40;16.60;99.90
698;DHT22;331;48.414;9.938;2023-05-23T07:16:09;16.60;99.90
698;DHT22;331;48.414;9.938;2023-05-23T07:18:46;16.60;99.90
698;DHT22;331;48.414;9.938;2023-05-23T07:21:13;16.60;99.90
698;DHT22;331;48.414;9.938;2023-05-23T07:23:40;16.60;99.90
698;DHT22;331;48.414;9.938;2023-05-23T07:26:07;16.60;99.90
698;DHT22;331;48.414;9.938;2023-05-23T07:28:47;16.60;99.90
698;DHT22;331;48.414;9.938;2023-05-23T07:31:15;16.60;99.90
698;DHT22;331;48.414;9.938;2023-05-23T07:33:46;16.60;99.90
698;DHT22;331;48.414;9.938;2023-05-23T07:36:19;16.60;99.90
698;DHT22;331;48.414;9.938;2023-05-23T07:38:47;16.60;99.90
698;DHT22;331;48.414;9.938;2023-05-23T07:41:13;16.60;99.90
698;DHT22;331;48.414;9.938;2023-05-23T07:43:40;16.60;99.90
698;DHT22;331;48.414;9.938;2023-05-23T07:46:09;16.60;99.90
698;DHT22;331;48.414;9.938;2023-05-23T07:48:36;16.60;99.90
698;DHT22;331;48.414;9.938;2023-05-23T07:51:03;16.60;99.90
698;DHT22;331;48.414;9.938;2023-05-23T07:53:30;16.60;99.90
698;DHT22;331;48.414;9.938;2023-05-23T07:55:57;16.60;99.90
698;DHT22;331;48.414;9.938;2023-05-23T07:58:29;16.60;99.90
698;DHT22;331;48.414;9.938;2023-05-23T08:00:56;16.70;99.90
698;DHT22;331;48.414;9.938;2023-05-23T08:03:45;16.70;99.90
698;DHT22;331;48.414;9.938;2023-05-23T08:06:18;16.70;99.90
698;DHT22;331;48.414;9.938;2023-05-23T08:08:45;16.70;99.90
698;DHT22;331;48.414;9.938;2023-05-23T08:11:13;16.70;99.90
698;DHT22;331;48.414;9.938;2023-05-23T08:13:44;16.70;99.90
698;DHT22;331;48.414;9.938;2023-05-23T08:16:32;16.70;99.90
698;DHT22;331;48.414;9.938;2023-05-23T08:19:01;16.70;99.90
698;DHT22;331;48.414;9.938;2023-05-23T08:21:27;16.70;99.90
698;DHT22;331;48.414;9.938;2023-05-23T08:23:54;16.70;99.90
698;DHT22;331;48.414;9.938;2023-05-23T08:26:21;16.70;99.90
698;DHT22;331;48.414;9.938;2023-05-23T08:28:49;16.70;99.90
698;DHT22;331;48.414;9.938;2023-05-23T08:31:16;16.70;99.90
698;DHT22;331;48.414;9.938;2023-05-23T08:33:43;16.70;99.90
698;DHT22;331;48.414;9.938;2023-05-23T08:36:12;16.70;99.90
698;DHT22;331;48.414;9.938;2023-05-23T08:38:39;16.70;99.90
698;DHT22;331;48.414;9.938;2023-05-23T08:41:15;16.70;99.90
698;DHT22;331;48.414;9.938;2023-05-23T08:43:44;16.70;99.90
698;DHT22;331;48.414;9.938;2023-05-23T08:46:16;16.70;99.90
698;DHT22;331;48.414;9.938;2023-05-23T08:48:43;16.70;99.90
698;DHT22;331;48.414;9.938;2023-05-23T08:51:15;16.70;99.90
698;DHT22;331;48.414;9.938;2023-05-23T08:53:44;16.70;99.90
698;DHT22;331;48.414;9.938;2023-05-23T08:56:12;16.70;99.90
698;DHT22;331;48.414;9.938;2023-05-23T08:58:43;16.70;99.90
698;DHT22;331;48.414;9.938;2023-05-23T09:01:12;16.70;99.90
698;DHT22;331;48.414;9.938;2023-05-23T09:03:39;16.70;99.90
698;DHT22;331;48.414;9.938;2023-05-23T09:06:20;16.70;99.90
698;DHT22;331;48.414;9.938;2023-05-23T09:08:47;16.70;99.90
698;DHT22;331;48.414;9.938;2023-05-23T09:11:17;16.70;99.90
698;DHT22;331;48.414;9.938;2023-05-23T09:13:47;16.70;99.90
698;DHT22;331;48.414;9.938;2023-05-23T09:16:16;16.70;99.90
698;DHT22;331;48.414;9.938;2023-05-23T09:18:55;16.70;99.90
698;DHT22;331;48.414;9.938;2023-05-23T09:21:24;16.70;99.90
698;DHT22;331;48.414;9.938;2023-05-23T09:24:14;16.70;99.90
698;DHT22;331;48.414;9.938;2023-05-23T09:26:41;16.80;99.90
698;DHT22;331;48.414;9.938;2023-05-23T09:29:11;16.80;99.90
698;DHT22;331;48.414;9.938;2023-05-23T09:31:41;16.80;99.90
698;DHT22;331;48.414;9.938;2023-05-23T09:34:08;16.80;99.90
698;DHT22;331;48.414;9.938;2023-05-23T09:36:37;16.80;99.90
698;DHT22;331;48.414;9.938;2023-05-23T09:39:09;16.80;99.90
698;DHT22;331;48.414;9.938;2023-05-23T09:41:37;16.80;99.90
698;DHT22;331;48.414;9.938;2023-05-23T09:44:05;16.80;99.90
698;DHT22;331;48.414;9.938;2023-05-23T09:46:34;16.80;99.90
698;DHT22;331;48.414;9.938;2023-05-23T09:49:01;16.80;99.90
698;DHT22;331;48.414;9.938;2023-05-23T09:51:28;16.90;99.90
698;DHT22;331;48.414;9.938;2023-05-23T09:53:57;16.90;99.90
698;DHT22;331;48.414;9.938;2023-05-23T09:56:24;16.90;99.90
698;DHT22;331;48.414;9.938;2023-05-23T09:58:51;16.90;99.90
698;DHT22;331;48.414;9.938;2023-05-23T10:01:19;17.00;99.90
698;DHT22;331;48.414;9.938;2023-05-23T10:03:49;17.00;99.90
698;DHT22;331;48.414;9.938;2023-05-23T10:06:21;17.00;99.90
698;DHT22;331;48.414;9.938;2023-05-23T10:08:51;17.00;99.90
698;DHT22;331;48.414;9.938;2023-05-23T10:14:04;17.00;99.90
698;DHT22;331;48.414;9.938;2023-05-23T10:16:33;17.10;99.90
698;DHT22;331;48.414;9.938;2023-05-23T10:19:05;17.10;99.90
698;DHT22;331;48.414;9.938;2023-05-23T10:21:33;17.10;99.90
698;DHT22;331;48.414;9.938;2023-05-23T10:24:02;17.10;99.90
698;DHT22;331;48.414;9.938;2023-05-23T10:26:29;17.10;99.90
698;DHT22;331;48.414;9.938;2023-05-23T10:28:56;17.10;99.90
698;DHT22;331;48.414;9.938;2023-05-23T10:31:25;17.10;99.90
698;DHT22;331;48.414;9.938;2023-05-23T10:33:53;17.10;99.90
698;DHT22;331;48.414;9.938;2023-05-23T10:36:23;17.10;99.90
698;DHT22;331;48.414;9.938;2023-05-23T10:38:54;17.20;99.90
698;DHT22;331;48.414;9.938;2023-05-23T10:41:24;17.20;99.90
698;DHT22;331;48.414;9.938;2023-05-23T10:43:54;17.20;99.90
698;DHT22;331;48.414;9.938;2023-05-23T10:46:22;17.20;99.90
698;DHT22;331;48.414;9.938;2023-05-23T10:48:54;17.20;99.90
698;DHT22;331;48.414;9.938;2023-05-23T10:51:22;17.20;99.90
698;DHT22;331;48.414;9.938;2023-05-23T10:53:52;17.30;99.90
698;DHT22;331;48.414;9.938;2023-05-23T10:56:19;17.30;99.90
698;DHT22;331;48.414;9.938;2023-05-23T10:58:51;17.30;99.90
698;DHT22;331;48.414;9.938;2023-05-23T11:01:18;17.30;99.90
698;DHT22;331;48.414;9.938;2023-05-23T11:03:48;17.30;99.90
698;DHT22;331;48.414;9.938;2023-05-23T11:06:28;17.30;99.90
698;DHT22;331;48.414;9.938;2023-05-23T11:09:00;17.30;99.90
698;DHT22;331;48.414;9.938;2023-05-23T11:14:11;17.40;99.90
698;DHT22;331;48.414;9.938;2023-05-23T11:16:39;17.40;99.90
698;DHT22;331;48.414;9.938;2023-05-23T11:19:22;17.40;99.90
698;DHT22;331;48.414;9.938;2023-05-23T11:22:03;17.40;99.90
698;DHT22;331;48.414;9.938;2023-05-23T11:24:46;17.50;99.90
698;DHT22;331;48.414;9.938;2023-05-23T11:27:14;17.50;99.90
698;DHT22;331;48.414;9.938;2023-05-23T11:29:44;17.50;99.90
698;DHT22;331;48.414;9.938;2023-05-23T11:32:11;17.50;99.90
698;DHT22;331;48.414;9.938;2023-05-23T11:34:38;17.50;99.90
698;DHT22;331;48.414;9.938;2023-05-23T11:37:07;17.60;99.90
698;DHT22;331;48.414;9.938;2023-05-23T11:39:36;17.60;99.90
698;DHT22;331;48.414;9.938;2023-05-23T11:42:03;17.60;99.90
698;DHT22;331;48.414;9.938;2023-05-23T11:44:30;17.60;99.90
698;DHT22;331;48.414;9.938;2023-05-23T11:47:00;17.60;99.90
698;DHT22;331;48.414;9.938;2023-05-23T11:49:28;17.60;99.90
698;DHT22;331;48.414;9.938;2023-05-23T11:51:55;17.70;99.90
698;DHT22;331;48.414;9.938;2023-05-23T11:54:23;17.70;99.90
698;DHT22;331;48.414;9.938;2023-05-23T11:56:51;17.70;99.90
698;DHT22;331;48.414;9.938;2023-05-23T11:59:17;17.70;99.90
698;DHT22;331;48.414;9.938;2023-05-23T12:01:44;17.80;99.90
698;DHT22;331;48.414;9.938;2023-05-23T12:04:11;17.80;99.90
698;DHT22;331;48.414;9.938;2023-05-23T12:06:38;17.80;99.90
698;DHT22;331;48.414;9.938;2023-05-23T12:09:06;17.80;99.90
698;DHT22;331;48.414;9.938;2023-05-23T12:11:34;17.90;99.90
698;DHT22;331;48.414;9.938;2023-05-23T12:14:01;17.90;99.90
698;DHT22;331;48.414;9.938;2023-05-23T12:16:30;17.90;99.90
698;DHT22;331;48.414;9.938;2023-05-23T12:18:57;17.90;99.90
698;DHT22;331;48.414;9.938;2023-05-23T12:21:25;18.00;99.90
698;DHT22;331;48.414;9.938;2023-05-23T12:23:52;18.00;99.90
698;DHT22;331;48.414;9.938;2023-05-23T12:26:18;18.10;99.90
698;DHT22;331;48.414;9.938;2023-05-23T12:28:47;18.10;99.90
698;DHT22;331;48.414;9.938;2023-05-23T12:31:15;18.10;99.90
698;DHT22;331;48.414;9.938;2023-05-23T12:33:42;18.20;99.90
698;DHT22;331;48.414;9.938;2023-05-23T12:36:10;18.20;99.90
698;DHT22;331;48.414;9.938;2023-05-23T12:38:37;18.20;99.90
698;DHT22;331;48.414;9.938;2023-05-23T12:41:09;18.20;99.90
698;DHT22;331;48.414;9.938;2023-05-23T12:43:39;18.30;99.90
698;DHT22;331;48.414;9.938;2023-05-23T12:46:07;18.30;99.90
698;DHT22;331;48.414;9.938;2023-05-23T12:48:34;18.30;99.90
698;DHT22;331;48.414;9.938;2023-05-23T12:51:02;18.40;99.90
698;DHT22;331;48.414;9.938;2023-05-23T12:53:30;18.40;99.90
698;DHT22;331;48.414;9.938;2023-05-23T12:55:58;18.50;99.90
698;DHT22;331;48.414;9.938;2023-05-23T12:58:25;18.50;99.90
698;DHT22;331;48.414;9.938;2023-05-23T13:00:53;18.50;99.90
698;DHT22;331;48.414;9.938;2023-05-23T13:03:21;18.50;99.90
698;DHT22;331;48.414;9.938;2023-05-23T13:05:48;18.60;99.90
698;DHT22;331;48.414;9.938;2023-05-23T13:08:15;18.60;99.90
698;DHT22;331;48.414;9.938;2023-05-23T13:10:43;18.60;99.90
698;DHT22;331;48.414;9.938;2023-05-23T13:13:10;18.60;99.90
698;DHT22;331;48.414;9.938;2023-05-23T13:15:38;18.60;99.90
698;DHT22;331;48.414;9.938;2023-05-23T13:18:05;18.60;99.90
698;DHT22;331;48.414;9.938;2023-05-23T13:20:33;18.60;99.90
698;DHT22;331;48.414;9.938;2023-05-23T13:23:00;18.60;99.90
698;DHT22;331;48.414;9.938;2023-05-23T13:25:27;18.60;99.90
698;DHT22;331;48.414;9.938;2023-05-23T13:27:54;18.60;99.90
698;DHT22;331;48.414;9.938;2023-05-23T13:30:22;18.60;99.90
698;DHT22;331;48.414;9.938;2023-05-23T13:32:49;18.60;99.90
698;DHT22;331;48.414;9.938;2023-05-23T13:35:16;18.60;99.90
698;DHT22;331;48.414;9.938;2023-05-23T13:37:48;18.70;99.90
698;DHT22;331;48.414;9.938;2023-05-23T13:40:16;18.70;99.90
698;DHT22;331;48.414;9.938;2023-05-23T13:42:43;18.70;99.90
698;DHT22;331;48.414;9.938;2023-05-23T13:45:10;18.70;99.90
698;DHT22;331;48.414;9.938;2023-05-23T13:47:37;18.70;99.90
698;DHT22;331;48.414;9.938;2023-05-23T13:50:05;18.70;99.90
698;DHT22;331;48.414;9.938;2023-05-23T13:52:33;18.70;99.90
698;DHT22;331;48.414;9.938;2023-05-23T13:55:02;18.70;99.90
698;DHT22;331;48.414;9.938;2023-05-23T13:57:30;18.70;99.90
698;DHT22;331;48.414;9.938;2023-05-23T13:59:57;18.70;99.90
698;DHT22;331;48.414;9.938;2023-05-23T14:02:24;18.70;99.90
698;DHT22;331;48.414;9.938;2023-05-23T14:04:51;18.70;99.90
698;DHT22;331;48.414;9.938;2023-05-23T14:07:18;18.70;99.90
698;DHT22;331;48.414;9.938;2023-05-23T14:09:46;18.70;99.90
698;DHT22;331;48.414;9.938;2023-05-23T14:12:16;18.70;99.90
698;DHT22;331;48.414;9.938;2023-05-23T14:14:43;18.70;99.90
698;DHT22;331;48.414;9.938;2023-05-23T14:17:12;18.70;99.90
698;DHT22;331;48.414;9.938;2023-05-23T14:19:39;18.70;99.90
698;DHT22;331;48.414;9.938;2023-05-23T14:22:06;18.70;99.90
698;DHT22;331;48.414;9.938;2023-05-23T14:24:36;18.70;99.90
698;DHT22;331;48.414;9.938;2023-05-23T14:27:03;18.80;99.90
698;DHT22;331;48.414;9.938;2023-05-23T14:29:32;18.80;99.90
698;DHT22;331;48.414;9.938;2023-05-23T14:31:59;18.80;99.90
698;DHT22;331;48.414;9.938;2023-05-23T14:34:28;18.80;99.90
698;DHT22;331;48.414;9.938;2023-05-23T14:36:56;18.80;99.90
698;DHT22;331;48.414;9.938;2023-05-23T14:39:25;18.90;99.90
698;DHT22;331;48.414;9.938;2023-05-23T14:41:54;18.90;99.90
698;DHT22;331;48.414;9.938;2023-05-23T14:44:21;18.90;99.90
698;DHT22;331;48.414;9.938;2023-05-23T14:46:50;18.90;99.90
698;DHT22;331;48.414;9.938;2023-05-23T14:49:20;19.00;99.90
698;DHT22;331;48.414;9.938;2023-05-23T14:51:51;19.00;99.90
698;DHT22;331;48.414;9.938;2023-05-23T14:54:19;19.10;99.90
698;DHT22;331;48.414;9.938;2023-05-23T14:56:47;19.00;99.90
698;DHT22;331;48.414;9.938;2023-05-23T14:59:15;19.10;99.90
698;DHT22;331;48.414;9.938;2023-05-23T15:01:45;19.10;99.90
698;DHT22;331;48.414;9.938;2023-05-23T15:04:15;19.10;99.90
698;DHT22;331;48.414;9.938;2023-05-23T15:06:47;19.10;99.90
698;DHT22;331;48.414;9.938;2023-05-23T15:09:25;19.10;99.90
698;DHT22;331;48.414;9.938;2023-05-23T15:11:53;19.10;99.90
698;DHT22;331;48.414;9.938;2023-05-23T15:14:24;19.10;99.90
698;DHT22;331;48.414;9.938;2023-05-23T15:16:57;19.10;99.90
698;DHT22;331;48.414;9.938;2023-05-23T15:19:35;19.20;99.90
698;DHT22;331;48.414;9.938;2023-05-23T15:22:04;19.10;99.90
698;DHT22;331;48.414;9.938;2023-05-23T15:24:31;19.20;99.90
698;DHT22;331;48.414;9.938;2023-05-23T15:27:00;19.20;99.90
698;DHT22;331;48.414;9.938;2023-05-23T15:29:28;19.10;99.90
698;DHT22;331;48.414;9.938;2023-05-23T15:31:56;19.10;99.90
698;DHT22;331;48.414;9.938;2023-05-23T15:34:23;19.10;99.90
698;DHT22;331;48.414;9.938;2023-05-23T15:36:53;19.20;99.90
698;DHT22;331;48.414;9.938;2023-05-23T15:39:21;19.20;99.90
698;DHT22;331;48.414;9.938;2023-05-23T15:41:48;19.20;99.90
698;DHT22;331;48.414;9.938;2023-05-23T15:44:16;19.20;99.90
698;DHT22;331;48.414;9.938;2023-05-23T15:46:45;19.20;99.90
698;DHT22;331;48.414;9.938;2023-05-23T15:49:13;19.20;99.90
698;DHT22;331;48.414;9.938;2023-05-23T15:51:41;19.20;99.90
698;DHT22;331;48.414;9.938;2023-05-23T15:54:10;19.20;99.90
698;DHT22;331;48.414;9.938;2023-05-23T15:56:38;19.20;99.90
698;DHT22;331;48.414;9.938;2023-05-23T15:59:06;19.20;99.90
698;DHT22;331;48.414;9.938;2023-05-23T16:01:35;19.20;99.90
698;DHT22;331;48.414;9.938;2023-05-23T16:04:02;19.20;99.90
698;DHT22;331;48.414;9.938;2023-05-23T16:06:31;19.20;99.90
698;DHT22;331;48.414;9.938;2023-05-23T16:08:58;19.20;99.90
698;DHT22;331;48.414;9.938;2023-05-23T16:11:28;19.20;99.90
698;DHT22;331;48.414;9.938;2023-05-23T16:13:55;19.20;99.90
698;DHT22;331;48.414;9.938;2023-05-23T16:16:22;19.20;99.90
698;DHT22;331;48.414;9.938;2023-05-23T16:18:50;19.20;99.90
698;DHT22;331;48.414;9.938;2023-05-23T16:21:19;19.20;99.90
698;DHT22;331;48.414;9.938;2023-05-23T16:23:47;19.20;99.90
698;DHT22;331;48.414;9.938;2023-05-23T16:26:16;19.20;99.90
698;DHT22;331;48.414;9.938;2023-05-23T16:28:47;19.20;99.90
698;DHT22;331;48.414;9.938;2023-05-23T16:31:15;19.20;99.90
698;DHT22;331;48.414;9.938;2023-05-23T16:33:43;19.20;99.90
698;DHT22;331;48.414;9.938;2023-05-23T16:36:19;19.20;99.90
698;DHT22;331;48.414;9.938;2023-05-23T16:38:48;19.20;99.90
698;DHT22;331;48.414;9.938;2023-05-23T16:41:30;19.20;99.90
698;DHT22;331;48.414;9.938;2023-05-23T16:44:01;19.20;99.90
698;DHT22;331;48.414;9.938;2023-05-23T16:46:29;19.20;99.90
698;DHT22;331;48.414;9.938;2023-05-23T16:49:06;19.20;99.90
698;DHT22;331;48.414;9.938;2023-05-23T16:51:51;19.20;99.90